createdAt,value
2022-10-08T00:01:11.587Z,12.15
2022-10-08T00:03:41.246Z,11.40
2022-10-08T00:06:13.177Z,12.18
2022-10-08T00:08:42.587Z,12.32
2022-10-08T00:11:13.579Z,11.95
2022-10-08T00:13:42.643Z,11.77
2022-10-08T00:16:16.197Z,12.15
2022-10-08T00:18:45.891Z,12.38
2022-10-08T00:21:44.138Z,12.55
2022-10-08T00:24:15.071Z,13.55
2022-10-08T00:26:44.025Z,13.05
2022-10-08T00:29:14.568Z,13.23
2022-10-08T00:31:46.161Z,14.10
2022-10-08T00:34:18.622Z,13.00
2022-10-08T00:36:45.644Z,13.90
2022-10-08T00:39:15.573Z,12.68
2022-10-08T00:41:47.867Z,12.68
2022-10-08T00:44:42.617Z,12.60
2022-10-08T00:47:38.857Z,13.57
2022-10-08T00:50:41.587Z,13.25
2022-10-08T00:53:10.173Z,13.20
2022-10-08T00:55:43.861Z,13.02
2022-10-08T00:58:20.200Z,12.40
2022-10-08T01:00:49.551Z,13.77
2022-10-08T01:03:18.958Z,13.43
2022-10-08T01:06:00.993Z,14.52
2022-10-08T01:08:49.403Z,14.43
2022-10-08T01:11:39.458Z,15.63
2022-10-08T01:14:21.196Z,14.48
2022-10-08T01:17:06.876Z,14.32
2022-10-08T01:20:01.203Z,14.77
2022-10-08T01:22:39.981Z,16.48
2022-10-08T01:25:33.763Z,15.57
2022-10-08T01:28:20.095Z,16.27
2022-10-08T01:31:12.234Z,15.90
2022-10-08T01:33:54.965Z,16.30
2022-10-08T01:36:25.861Z,15.50
2022-10-08T01:38:58.391Z,15.13
2022-10-08T01:41:27.441Z,15.10
2022-10-08T01:44:02.920Z,15.38
2022-10-08T01:46:32.082Z,15.05
2022-10-08T01:49:07.450Z,14.65
2022-10-08T01:51:47.174Z,14.00
2022-10-08T01:54:17.010Z,13.18
2022-10-08T01:56:47.386Z,13.38
2022-10-08T01:59:16.804Z,13.82
2022-10-08T02:01:50.074Z,13.13
2022-10-08T02:04:34.968Z,13.00
2022-10-08T02:07:10.978Z,14.52
2022-10-08T02:09:44.218Z,15.55
2022-10-08T02:12:12.162Z,14.20
2022-10-08T02:14:47.350Z,15.52
2022-10-08T02:20:05.734Z,14.43
2022-10-08T02:22:45.598Z,14.68
2022-10-08T02:25:31.002Z,14.88
2022-10-08T02:28:11.232Z,14.63
2022-10-08T02:30:53.796Z,14.82
2022-10-08T02:33:44.807Z,13.68
2022-10-08T02:36:14.987Z,14.35
2022-10-08T02:38:57.855Z,14.77
2022-10-08T02:41:46.546Z,14.30
2022-10-08T02:44:18.312Z,14.02
2022-10-08T02:46:50.105Z,15.00
2022-10-08T02:49:22.900Z,14.80
2022-10-08T02:51:52.866Z,13.98
2022-10-08T02:54:23.566Z,14.57
2022-10-08T02:57:00.234Z,13.88
2022-10-08T02:59:27.652Z,13.27
2022-10-08T03:02:06.098Z,13.38
2022-10-08T03:04:43.840Z,13.00
2022-10-08T03:07:12.516Z,12.88
2022-10-08T03:09:44.099Z,12.70
2022-10-08T03:12:11.935Z,12.33
2022-10-08T03:14:41.982Z,12.60
2022-10-08T03:17:12.935Z,12.43
2022-10-08T03:19:40.177Z,12.32
2022-10-08T03:22:08.231Z,10.85
2022-10-08T03:24:36.021Z,10.48
2022-10-08T03:27:04.135Z,10.82
2022-10-08T03:29:30.839Z,11.23
2022-10-08T03:31:58.094Z,11.05
2022-10-08T03:34:25.766Z,11.50
2022-10-08T03:36:52.885Z,11.27
2022-10-08T03:39:19.871Z,11.25
2022-10-08T03:41:46.678Z,11.25
2022-10-08T03:44:13.646Z,11.43
2022-10-08T03:46:41.030Z,11.82
2022-10-08T03:49:07.813Z,11.18
2022-10-08T03:51:34.732Z,11.25
2022-10-08T03:54:01.665Z,12.13
2022-10-08T03:56:29.113Z,11.95
2022-10-08T03:58:58.505Z,11.85
2022-10-08T04:01:27.196Z,10.98
2022-10-08T04:03:54.589Z,11.63
2022-10-08T04:06:21.980Z,11.57
2022-10-08T04:08:48.761Z,11.82
2022-10-08T04:11:17.906Z,12.27
2022-10-08T04:13:45.299Z,12.52
2022-10-08T04:16:14.914Z,12.82
2022-10-08T04:18:42.734Z,14.05
2022-10-08T04:21:14.772Z,14.38
2022-10-08T04:23:42.658Z,13.27
2022-10-08T04:26:11.279Z,13.70
2022-10-08T04:28:40.242Z,13.82
2022-10-08T04:31:10.938Z,14.40
2022-10-08T04:33:38.933Z,14.77
2022-10-08T04:36:10.864Z,14.00
2022-10-08T04:38:37.864Z,13.50
2022-10-08T04:41:07.985Z,15.80
2022-10-08T04:43:35.941Z,14.63
2022-10-08T04:46:03.977Z,13.98
2022-10-08T04:48:31.416Z,13.80
2022-10-08T04:51:08.117Z,14.65
2022-10-08T04:53:36.997Z,14.32
2022-10-08T04:56:13.090Z,14.40
2022-10-08T04:58:40.467Z,15.40
2022-10-08T05:01:10.045Z,14.70
2022-10-08T05:03:45.873Z,15.05
2022-10-08T05:06:15.110Z,14.50
2022-10-08T05:08:42.991Z,14.10
2022-10-08T05:11:10.429Z,14.07
2022-10-08T05:13:37.531Z,15.25
2022-10-08T05:16:09.491Z,13.73
2022-10-08T05:18:37.622Z,14.73
2022-10-08T05:21:12.254Z,14.23
2022-10-08T05:23:40.143Z,13.68
2022-10-08T05:26:19.118Z,13.35
2022-10-08T05:28:47.348Z,13.50
2022-10-08T05:31:15.767Z,13.95
2022-10-08T05:33:43.292Z,12.80
2022-10-08T05:36:22.292Z,12.68
2022-10-08T05:38:49.851Z,12.73
2022-10-08T05:41:20.231Z,12.60
2022-10-08T05:43:48.126Z,12.20
2022-10-08T05:46:16.102Z,12.45
2022-10-08T05:48:43.899Z,12.23
2022-10-08T05:51:14.221Z,13.35
2022-10-08T05:53:47.168Z,12.73
2022-10-08T05:58:42.498Z,13.68
2022-10-08T06:01:25.082Z,14.07
2022-10-08T06:03:54.347Z,12.35
2022-10-08T06:06:23.079Z,13.30
2022-10-08T06:08:55.536Z,12.27
2022-10-08T06:11:23.052Z,15.15
2022-10-08T06:13:57.201Z,14.15
2022-10-08T06:16:25.061Z,14.80
2022-10-08T06:18:52.652Z,15.30
2022-10-08T06:21:22.147Z,15.18
2022-10-08T06:23:52.968Z,14.85
2022-10-08T06:26:22.477Z,14.60
2022-10-08T06:28:49.642Z,14.57
2022-10-08T06:31:17.334Z,15.70
2022-10-08T06:33:44.188Z,13.85
2022-10-08T06:36:26.163Z,14.38
2022-10-08T06:38:56.199Z,16.15
2022-10-08T06:41:23.740Z,14.27
2022-10-08T06:43:51.445Z,13.60
2022-10-08T06:46:19.722Z,14.45
2022-10-08T06:48:47.230Z,13.82
2022-10-08T06:51:17.124Z,13.25
2022-10-08T06:53:45.856Z,13.18
2022-10-08T06:56:17.989Z,13.95
2022-10-08T06:58:46.411Z,13.85
2022-10-08T07:01:18.916Z,14.55
2022-10-08T07:06:20.753Z,13.80
2022-10-08T07:08:47.645Z,15.57
2022-10-08T07:11:16.851Z,15.80
2022-10-08T07:13:45.156Z,16.48
2022-10-08T07:16:21.244Z,14.95
2022-10-08T07:18:50.395Z,14.63
2022-10-08T07:21:19.314Z,15.20
2022-10-08T07:23:46.753Z,16.52
2022-10-08T07:26:16.730Z,15.25
2022-10-08T07:28:49.316Z,14.57
2022-10-08T07:31:19.654Z,16.58
2022-10-08T07:33:46.718Z,16.17
2022-10-08T07:36:19.574Z,16.60
2022-10-08T07:38:48.016Z,14.77
2022-10-08T07:41:15.306Z,15.63
2022-10-08T07:43:43.217Z,13.73
2022-10-08T07:46:12.029Z,14.30
2022-10-08T07:48:39.927Z,14.30
2022-10-08T07:51:12.025Z,14.38
2022-10-08T07:53:40.615Z,14.07
2022-10-08T07:56:09.515Z,13.30
2022-10-08T07:58:37.468Z,11.30
2022-10-08T08:01:07.375Z,10.20
2022-10-08T08:03:35.466Z,9.00
2022-10-08T08:06:09.536Z,9.77
2022-10-08T08:08:38.026Z,9.45
2022-10-08T08:11:07.564Z,10.52
2022-10-08T08:13:37.578Z,9.40
2022-10-08T08:16:07.940Z,9.93
2022-10-08T08:18:38.638Z,9.18
2022-10-08T08:21:11.433Z,8.82
2022-10-08T08:23:41.158Z,8.30
2022-10-08T08:26:13.115Z,8.60
2022-10-08T08:28:40.430Z,8.48
2022-10-08T08:31:22.695Z,8.90
2022-10-08T08:36:20.871Z,8.25
2022-10-08T08:38:48.327Z,8.40
2022-10-08T08:41:35.513Z,8.45
2022-10-08T08:44:32.573Z,8.38
2022-10-08T08:47:24.542Z,7.10
2022-10-08T08:49:55.412Z,8.05
2022-10-08T08:52:29.381Z,7.28
2022-10-08T08:54:57.906Z,7.10
2022-10-08T08:57:56.909Z,7.43
2022-10-08T09:00:33.413Z,7.47
2022-10-08T09:03:22.416Z,7.22
2022-10-08T09:05:53.436Z,6.40
2022-10-08T09:08:23.667Z,7.13
2022-10-08T09:10:58.559Z,6.03
2022-10-08T09:13:30.619Z,6.88
2022-10-08T09:18:24.840Z,5.80
2022-10-08T09:20:52.220Z,6.38
2022-10-08T09:23:22.403Z,6.57
2022-10-08T09:26:23.260Z,6.45
2022-10-08T09:28:58.758Z,6.72
2022-10-08T09:31:39.511Z,6.25
2022-10-08T09:34:21.792Z,5.60
2022-10-08T09:39:27.364Z,6.10
2022-10-08T09:42:20.119Z,6.03
2022-10-08T09:44:56.992Z,6.45
2022-10-08T09:47:25.897Z,6.18
2022-10-08T09:50:06.555Z,5.50
2022-10-08T09:52:36.266Z,5.70
2022-10-08T09:55:11.298Z,6.68
2022-10-08T09:57:51.767Z,6.35
2022-10-08T10:00:26.742Z,5.72
2022-10-08T10:02:56.600Z,6.55
2022-10-08T10:05:27.777Z,5.60
2022-10-08T10:07:55.718Z,5.70
2022-10-08T10:10:42.464Z,5.78
2022-10-08T10:13:19.638Z,5.38
2022-10-08T10:16:11.793Z,5.70
2022-10-08T10:21:32.776Z,4.45
2022-10-08T10:24:28.013Z,5.22
2022-10-08T10:27:00.546Z,4.80
2022-10-08T10:29:43.944Z,4.20
2022-10-08T10:32:21.305Z,4.38
2022-10-08T10:34:59.031Z,4.43
2022-10-08T10:37:44.645Z,4.90
2022-10-08T10:40:15.970Z,4.50
2022-10-08T10:43:18.369Z,4.15
2022-10-08T10:45:53.230Z,4.95
2022-10-08T10:48:20.357Z,4.57
2022-10-08T10:51:15.746Z,4.20
2022-10-08T10:53:48.477Z,3.88
2022-10-08T10:56:20.217Z,4.00
2022-10-08T10:59:06.554Z,4.07
2022-10-08T11:01:54.797Z,3.63
2022-10-08T11:04:35.367Z,4.38
2022-10-08T11:07:24.730Z,4.17
2022-10-08T11:10:03.645Z,3.85
2022-10-08T11:12:42.659Z,4.13
2022-10-08T11:15:18.786Z,4.78
2022-10-08T11:17:55.139Z,4.25
2022-10-08T11:21:06.981Z,3.92
2022-10-08T11:23:40.276Z,4.63
2022-10-08T11:26:45.554Z,4.50
2022-10-08T11:29:45.860Z,4.35
2022-10-08T11:32:17.186Z,5.15
2022-10-08T11:34:58.186Z,4.82
2022-10-08T11:37:32.792Z,4.22
2022-10-08T11:40:03.272Z,4.38
2022-10-08T11:42:42.936Z,3.80
2022-10-08T11:45:23.978Z,4.30
2022-10-08T11:47:54.541Z,4.80
2022-10-08T11:50:28.284Z,4.00
2022-10-08T11:53:15.726Z,4.13
2022-10-08T11:55:55.739Z,4.15
2022-10-08T11:58:28.484Z,4.30
2022-10-08T12:01:07.155Z,4.20
2022-10-08T12:03:37.403Z,4.40
2022-10-08T12:06:16.242Z,4.55
2022-10-08T12:09:03.406Z,4.35
2022-10-08T12:11:35.791Z,4.85
2022-10-08T12:14:12.097Z,4.90
2022-10-08T12:16:48.615Z,4.13
2022-10-08T12:19:34.365Z,5.25
2022-10-08T12:22:17.988Z,4.07
2022-10-08T12:24:49.558Z,3.95
2022-10-08T12:27:17.749Z,4.30
2022-10-08T12:30:07.638Z,4.20
2022-10-08T12:32:43.413Z,4.45
2022-10-08T12:35:22.446Z,3.65
2022-10-08T12:38:16.049Z,4.38
2022-10-08T12:41:06.973Z,4.05
2022-10-08T12:43:47.090Z,4.53
2022-10-08T12:46:36.844Z,4.93
2022-10-08T12:49:16.814Z,4.35
2022-10-08T12:51:59.433Z,4.50
2022-10-08T12:54:29.445Z,4.65
2022-10-08T12:56:57.579Z,4.25
2022-10-08T12:59:27.599Z,4.20
2022-10-08T13:01:55.322Z,4.70
2022-10-08T13:04:32.343Z,4.85
2022-10-08T13:07:00.479Z,5.05
2022-10-08T13:09:34.569Z,4.45
2022-10-08T13:12:04.273Z,5.13
2022-10-08T13:14:34.109Z,5.07
2022-10-08T13:17:02.341Z,4.90
2022-10-08T13:19:32.706Z,5.05
2022-10-08T13:22:24.543Z,4.88
2022-10-08T13:24:51.787Z,4.47
2022-10-08T13:27:28.392Z,4.75
2022-10-08T13:29:56.320Z,5.20
2022-10-08T13:32:27.794Z,4.53
2022-10-08T13:35:02.304Z,4.80
2022-10-08T13:37:37.945Z,4.38
2022-10-08T13:40:11.091Z,5.05
2022-10-08T13:42:44.213Z,4.55
2022-10-08T13:45:37.302Z,4.97
2022-10-08T13:48:05.892Z,4.60
2022-10-08T13:50:32.686Z,4.25
2022-10-08T13:53:01.567Z,5.20
2022-10-08T13:55:36.414Z,5.30
2022-10-08T13:58:06.293Z,4.60
2022-10-08T14:00:36.397Z,4.75
2022-10-08T14:03:03.250Z,5.20
2022-10-08T14:05:34.695Z,5.20
2022-10-08T14:08:13.982Z,4.88
2022-10-08T14:10:41.659Z,5.35
2022-10-08T14:13:12.291Z,4.95
2022-10-08T14:15:39.556Z,4.78
2022-10-08T14:18:07.027Z,4.63
2022-10-08T14:20:35.442Z,4.43
2022-10-08T14:23:02.594Z,5.00
2022-10-08T14:25:31.310Z,4.65
2022-10-08T14:27:59.566Z,4.80
2022-10-08T14:30:28.122Z,4.60
2022-10-08T14:32:55.797Z,4.75
2022-10-08T14:35:22.894Z,4.70
2022-10-08T14:37:50.435Z,4.50
2022-10-08T14:40:21.415Z,4.53
2022-10-08T14:42:48.912Z,4.53
2022-10-08T14:45:16.337Z,4.30
2022-10-08T14:47:43.835Z,4.72
2022-10-08T14:50:10.852Z,4.88
2022-10-08T14:52:41.892Z,4.80
2022-10-08T14:55:11.218Z,4.30
2022-10-08T14:57:38.531Z,4.68
2022-10-08T15:00:06.759Z,4.80
2022-10-08T15:02:37.030Z,4.57
2022-10-08T15:05:04.193Z,4.32
2022-10-08T15:07:31.417Z,4.63
2022-10-08T15:09:59.205Z,4.03
2022-10-08T15:12:26.184Z,4.47
2022-10-08T15:14:53.240Z,4.38
2022-10-08T15:17:20.443Z,4.30
2022-10-08T15:19:47.341Z,4.30
2022-10-08T15:22:14.422Z,4.40
2022-10-08T15:24:41.514Z,3.92
2022-10-08T15:27:08.768Z,4.22
2022-10-08T15:29:36.498Z,4.47
2022-10-08T15:32:03.714Z,5.18
2022-10-08T15:34:30.894Z,5.20
2022-10-08T15:36:58.073Z,4.97
2022-10-08T15:39:25.187Z,4.95
2022-10-08T15:41:53.701Z,4.80
2022-10-08T15:44:23.943Z,5.90
2022-10-08T15:46:59.713Z,4.78
2022-10-08T15:49:31.752Z,5.03
2022-10-08T15:51:59.737Z,4.95
2022-10-08T15:54:26.830Z,5.28
2022-10-08T15:56:53.602Z,5.13
2022-10-08T15:59:21.044Z,5.40
2022-10-08T16:01:47.935Z,5.60
2022-10-08T16:04:14.663Z,4.75
2022-10-08T16:06:47.600Z,5.63
2022-10-08T16:09:16.350Z,5.00
2022-10-08T16:11:44.239Z,5.00
2022-10-08T16:14:24.884Z,5.60
2022-10-08T16:16:52.154Z,5.45
2022-10-08T16:19:22.446Z,5.47
2022-10-08T16:21:50.711Z,5.30
2022-10-08T16:24:18.228Z,5.72
2022-10-08T16:26:45.746Z,5.90
2022-10-08T16:29:15.058Z,5.40
2022-10-08T16:31:43.435Z,5.50
2022-10-08T16:34:16.216Z,6.03
2022-10-08T16:36:43.959Z,5.65
2022-10-08T16:39:12.498Z,5.90
2022-10-08T16:41:39.471Z,6.97
2022-10-08T16:44:14.495Z,7.28
2022-10-08T16:46:45.229Z,7.30
2022-10-08T16:49:24.518Z,7.72
2022-10-08T16:51:55.335Z,8.60
2022-10-08T16:54:23.202Z,8.18
2022-10-08T16:56:50.191Z,8.05
2022-10-08T16:59:23.857Z,7.53
2022-10-08T17:01:53.969Z,7.38
2022-10-08T17:04:22.830Z,6.90
2022-10-08T17:06:50.232Z,7.28
2022-10-08T17:09:17.983Z,7.53
2022-10-08T17:11:44.874Z,7.15
2022-10-08T17:14:12.473Z,7.82
2022-10-08T17:16:41.069Z,8.00
2022-10-08T17:19:08.399Z,8.05
2022-10-08T17:21:35.575Z,10.50
2022-10-08T17:24:02.911Z,11.20
2022-10-08T17:26:31.276Z,12.32
2022-10-08T17:29:04.188Z,10.43
2022-10-08T17:31:32.078Z,11.35
2022-10-08T17:34:00.512Z,12.63
2022-10-08T17:36:30.769Z,10.98
2022-10-08T17:39:00.749Z,9.93
2022-10-08T17:41:33.838Z,18.98
2022-10-08T17:44:03.093Z,18.92
2022-10-08T17:46:33.170Z,26.15
2022-10-08T17:49:00.769Z,39.33
2022-10-08T17:51:32.264Z,35.88
2022-10-08T17:54:02.870Z,25.80
2022-10-08T17:56:31.415Z,21.67
2022-10-08T17:58:58.460Z,26.88
2022-10-08T18:01:30.760Z,34.35
2022-10-08T18:04:03.447Z,28.95
2022-10-08T18:06:31.987Z,29.60
2022-10-08T18:09:01.072Z,19.13
2022-10-08T18:11:30.299Z,11.68
2022-10-08T18:13:57.552Z,11.23
2022-10-08T18:16:25.395Z,10.10
2022-10-08T18:18:55.086Z,10.55
2022-10-08T18:21:22.081Z,9.38
2022-10-08T18:23:49.576Z,9.40
2022-10-08T18:26:28.058Z,8.50
2022-10-08T18:28:56.926Z,8.63
2022-10-08T18:31:28.475Z,8.20
2022-10-08T18:34:01.223Z,8.25
2022-10-08T18:36:32.806Z,8.95
2022-10-08T18:39:14.902Z,9.68
2022-10-08T18:41:44.265Z,11.13
2022-10-08T18:44:17.689Z,12.90
2022-10-08T18:46:45.496Z,14.50
2022-10-08T18:49:14.745Z,12.88
2022-10-08T18:51:42.279Z,12.93
2022-10-08T18:54:10.369Z,12.48
2022-10-08T18:56:39.651Z,12.18
2022-10-08T18:59:10.851Z,11.38
2022-10-08T19:01:40.256Z,11.13
2022-10-08T19:04:11.096Z,11.18
2022-10-08T19:06:40.007Z,10.30
2022-10-08T19:09:07.113Z,11.20
2022-10-08T19:11:44.327Z,11.60
2022-10-08T19:14:13.716Z,11.85
2022-10-08T19:16:41.324Z,11.75
2022-10-08T19:19:20.593Z,11.10
2022-10-08T19:21:48.375Z,10.18
2022-10-08T19:24:20.092Z,9.93
2022-10-08T19:26:47.857Z,9.73
2022-10-08T19:29:35.908Z,10.07
2022-10-08T19:32:02.964Z,9.25
2022-10-08T19:34:29.765Z,10.07
2022-10-08T19:36:57.069Z,10.02
2022-10-08T19:39:26.378Z,10.43
2022-10-08T19:41:53.405Z,10.23
2022-10-08T19:44:21.057Z,10.50
2022-10-08T19:46:48.305Z,9.38
2022-10-08T19:49:15.815Z,9.68
2022-10-08T19:51:43.104Z,9.73
2022-10-08T19:54:10.241Z,11.23
2022-10-08T19:56:37.189Z,11.02
2022-10-08T19:59:05.059Z,9.70
2022-10-08T20:01:34.985Z,10.48
2022-10-08T20:04:04.380Z,9.95
2022-10-08T20:06:33.903Z,9.50
2022-10-08T20:09:03.071Z,10.48
2022-10-08T20:11:31.701Z,9.02
2022-10-08T20:14:00.025Z,8.90
2022-10-08T20:16:29.583Z,8.85
2022-10-08T20:19:02.264Z,10.13
2022-10-08T20:23:57.872Z,8.65
2022-10-08T20:26:30.110Z,9.55
2022-10-08T20:28:59.835Z,9.38
2022-10-08T20:31:29.681Z,9.05
2022-10-08T20:34:01.932Z,9.43
2022-10-08T20:36:30.269Z,9.45
2022-10-08T20:38:58.084Z,9.88
2022-10-08T20:41:30.667Z,10.55
2022-10-08T20:44:03.135Z,10.88
2022-10-08T20:46:32.434Z,10.38
2022-10-08T20:49:00.021Z,10.80
2022-10-08T20:51:28.522Z,10.60
2022-10-08T20:53:58.708Z,10.27
2022-10-08T20:56:27.124Z,10.85
2022-10-08T20:58:54.714Z,10.93
2022-10-08T21:01:27.658Z,10.65
2022-10-08T21:03:55.162Z,11.32
2022-10-08T21:06:25.080Z,11.63
2022-10-08T21:08:54.343Z,11.77
2022-10-08T21:11:23.998Z,10.93
2022-10-08T21:13:53.351Z,11.70
2022-10-08T21:16:25.126Z,12.82
2022-10-08T21:18:55.078Z,12.50
2022-10-08T21:21:22.968Z,13.00
2022-10-08T21:23:50.219Z,13.25
2022-10-08T21:26:23.341Z,13.32
2022-10-08T21:28:52.821Z,13.10
2022-10-08T21:31:20.903Z,13.75
2022-10-08T21:33:50.440Z,12.05
2022-10-08T21:36:20.854Z,12.30
2022-10-08T21:38:48.431Z,12.57
2022-10-08T21:41:17.653Z,13.13
2022-10-08T21:43:47.140Z,12.80
2022-10-08T21:46:18.008Z,13.48
2022-10-08T21:48:45.939Z,13.35
2022-10-08T21:51:16.644Z,12.10
2022-10-08T21:53:53.978Z,12.52
2022-10-08T21:56:23.965Z,12.73
2022-10-08T21:58:58.241Z,11.95
2022-10-08T22:01:34.974Z,11.77
2022-10-08T22:04:23.216Z,11.32
2022-10-08T22:06:57.981Z,11.80
2022-10-08T22:09:27.660Z,11.80
2022-10-08T22:11:55.419Z,11.70
2022-10-08T22:14:23.462Z,11.57
2022-10-08T22:16:50.565Z,11.50
2022-10-08T22:19:18.362Z,11.07
2022-10-08T22:21:45.490Z,12.40
2022-10-08T22:24:12.670Z,12.35
2022-10-08T22:26:42.304Z,12.50
2022-10-08T22:29:09.003Z,13.00
2022-10-08T22:31:37.121Z,12.40
2022-10-08T22:34:04.581Z,11.77
2022-10-08T22:36:32.865Z,11.77
2022-10-08T22:39:00.406Z,12.18
2022-10-08T22:41:29.871Z,11.75
2022-10-08T22:43:56.871Z,11.45
2022-10-08T22:46:26.551Z,11.30
2022-10-08T22:48:58.569Z,11.70
2022-10-08T22:51:28.790Z,11.13
2022-10-08T22:53:56.204Z,12.25
2022-10-08T22:56:25.817Z,11.45
2022-10-08T22:58:53.396Z,10.75
2022-10-08T23:01:23.201Z,11.25
2022-10-08T23:03:50.822Z,11.35
2022-10-08T23:06:20.420Z,11.23
2022-10-08T23:08:53.153Z,9.05
2022-10-08T23:11:20.083Z,8.38
2022-10-08T23:13:50.563Z,4.90
2022-10-08T23:16:17.925Z,3.40
2022-10-08T23:18:47.156Z,3.50
2022-10-08T23:21:16.900Z,3.30
2022-10-08T23:23:44.941Z,3.22
2022-10-08T23:26:12.711Z,3.20
2022-10-08T23:28:39.970Z,3.50
2022-10-08T23:31:11.365Z,3.85
2022-10-08T23:33:40.011Z,3.42
2022-10-08T23:36:12.515Z,3.00
2022-10-08T23:38:41.908Z,3.00
2022-10-08T23:41:10.948Z,3.35
2022-10-08T23:43:48.841Z,2.80
2022-10-08T23:46:18.815Z,2.97
2022-10-08T23:48:46.305Z,2.90
2022-10-08T23:51:14.407Z,2.70
2022-10-08T23:53:42.213Z,3.15
2022-10-08T23:56:10.047Z,3.22
2022-10-08T23:58:37.495Z,3.00
